createdAt,value
2023-04-26T00:01:59.307Z,6.05
2023-04-26T00:04:29.142Z,5.88
2023-04-26T00:06:56.540Z,5.93
2023-04-26T00:09:23.526Z,6.40
2023-04-26T00:11:50.591Z,6.22
2023-04-26T00:14:17.632Z,6.60
2023-04-26T00:16:44.787Z,6.78
2023-04-26T00:19:12.708Z,6.78
2023-04-26T00:21:40.132Z,6.18
2023-04-26T00:24:08.141Z,6.28
2023-04-26T00:26:35.240Z,6.80
2023-04-26T00:29:04.357Z,7.18
2023-04-26T00:31:31.590Z,6.88
2023-04-26T00:33:58.981Z,6.20
2023-04-26T00:36:26.357Z,6.68
2023-04-26T00:38:53.630Z,6.95
2023-04-26T00:41:20.941Z,6.57
2023-04-26T00:43:47.847Z,6.85
2023-04-26T00:46:15.275Z,6.68
2023-04-26T00:48:42.759Z,6.63
2023-04-26T00:51:10.133Z,6.50
2023-04-26T00:53:37.152Z,7.22
2023-04-26T00:56:06.943Z,7.25
2023-04-26T00:58:34.147Z,7.70
2023-04-26T01:01:01.355Z,6.88
2023-04-26T01:03:30.126Z,6.65
2023-04-26T01:05:58.359Z,6.85
2023-04-26T01:08:25.680Z,6.60
2023-04-26T01:10:53.466Z,6.38
2023-04-26T01:13:21.052Z,6.25
2023-04-26T01:15:48.706Z,6.65
2023-04-26T01:18:15.782Z,6.47
2023-04-26T01:20:43.092Z,6.55
2023-04-26T01:23:11.778Z,7.05
2023-04-26T01:25:38.846Z,7.53
2023-04-26T01:28:06.025Z,10.80
2023-04-26T01:30:33.353Z,8.82
2023-04-26T01:33:00.458Z,9.05
2023-04-26T01:35:27.635Z,11.85
2023-04-26T01:37:54.694Z,9.40
2023-04-26T01:40:22.075Z,10.27
2023-04-26T01:42:49.127Z,11.65
2023-04-26T01:45:16.247Z,9.20
2023-04-26T01:47:43.370Z,8.82
2023-04-26T01:50:10.800Z,8.23
2023-04-26T01:52:37.753Z,11.20
2023-04-26T01:55:05.076Z,11.98
2023-04-26T01:57:32.040Z,13.27
2023-04-26T01:59:59.458Z,13.68
2023-04-26T02:02:26.648Z,9.50
2023-04-26T02:04:54.141Z,9.05
2023-04-26T02:07:21.243Z,8.35
2023-04-26T02:09:48.142Z,7.78
2023-04-26T02:12:15.339Z,8.55
2023-04-26T02:14:42.376Z,8.48
2023-04-26T02:17:10.618Z,8.18
2023-04-26T02:19:37.656Z,8.30
2023-04-26T02:22:06.488Z,7.28
2023-04-26T02:24:33.695Z,7.70
2023-04-26T02:27:03.846Z,7.53
2023-04-26T02:29:43.700Z,7.55
2023-04-26T02:32:12.922Z,6.25
2023-04-26T02:34:40.707Z,6.35
2023-04-26T02:37:07.762Z,6.20
2023-04-26T02:39:34.769Z,6.28
2023-04-26T02:42:01.954Z,6.30
2023-04-26T02:44:31.969Z,6.70
2023-04-26T02:46:59.116Z,5.50
2023-04-26T02:49:26.200Z,5.75
2023-04-26T02:51:53.223Z,5.97
2023-04-26T02:54:20.360Z,5.57
2023-04-26T02:56:47.344Z,6.30
2023-04-26T02:59:14.643Z,6.93
2023-04-26T03:01:41.779Z,7.20
2023-04-26T03:04:09.123Z,8.35
2023-04-26T03:06:36.304Z,8.98
2023-04-26T03:09:05.627Z,9.30
2023-04-26T03:11:32.672Z,8.98
2023-04-26T03:13:59.661Z,8.85
2023-04-26T03:16:28.432Z,7.65
2023-04-26T03:18:55.528Z,8.30
2023-04-26T03:21:22.720Z,8.82
2023-04-26T03:23:49.899Z,8.70
2023-04-26T03:26:16.979Z,7.80
2023-04-26T03:28:44.108Z,7.93
2023-04-26T03:31:11.709Z,7.78
2023-04-26T03:33:38.860Z,6.90
2023-04-26T03:36:06.506Z,6.78
2023-04-26T03:38:33.718Z,6.30
2023-04-26T03:41:00.792Z,6.35
2023-04-26T03:43:27.783Z,6.57
2023-04-26T03:45:55.287Z,7.28
2023-04-26T03:48:22.394Z,6.00
2023-04-26T03:50:49.518Z,5.63
2023-04-26T03:53:16.546Z,5.75
2023-04-26T03:55:43.517Z,5.53
2023-04-26T03:58:10.463Z,4.43
2023-04-26T04:00:38.450Z,3.92
2023-04-26T04:03:07.386Z,5.28
2023-04-26T04:05:35.100Z,4.68
2023-04-26T04:08:02.468Z,5.35
2023-04-26T04:10:29.660Z,5.60
2023-04-26T04:12:56.746Z,5.20
2023-04-26T04:15:24.061Z,5.40
2023-04-26T04:17:51.199Z,4.90
2023-04-26T04:20:18.480Z,5.40
2023-04-26T04:22:45.556Z,5.72
2023-04-26T04:25:13.822Z,4.18
2023-04-26T04:27:45.265Z,3.60
2023-04-26T04:30:14.526Z,4.70
2023-04-26T04:32:47.069Z,4.45
2023-04-26T04:35:15.006Z,4.70
2023-04-26T04:37:44.230Z,5.90
2023-04-26T04:40:13.410Z,7.05
2023-04-26T04:42:40.753Z,6.97
2023-04-26T04:45:08.570Z,9.77
2023-04-26T04:47:37.906Z,6.15
2023-04-26T04:50:06.592Z,5.90
2023-04-26T04:52:33.759Z,6.18
2023-04-26T04:55:01.292Z,6.18
2023-04-26T04:57:28.542Z,7.15
2023-04-26T04:59:55.628Z,7.65
2023-04-26T05:02:23.234Z,7.40
2023-04-26T05:04:50.555Z,7.47
2023-04-26T05:07:18.620Z,7.95
2023-04-26T05:09:45.893Z,7.97
2023-04-26T05:12:13.063Z,10.57
2023-04-26T05:14:40.888Z,9.30
2023-04-26T05:17:07.927Z,9.02
2023-04-26T05:19:34.950Z,11.57
2023-04-26T05:22:02.191Z,9.73
2023-04-26T05:24:31.511Z,8.77
2023-04-26T05:26:59.855Z,9.13
2023-04-26T05:29:33.296Z,9.43
2023-04-26T05:32:00.442Z,10.00
2023-04-26T05:34:27.930Z,8.93
2023-04-26T05:36:54.954Z,8.77
2023-04-26T05:39:22.020Z,9.95
2023-04-26T05:41:49.062Z,9.38
2023-04-26T05:44:16.719Z,8.82
2023-04-26T05:46:43.837Z,9.40
2023-04-26T05:49:11.142Z,9.80
2023-04-26T05:51:38.264Z,8.48
2023-04-26T05:54:05.927Z,9.25
2023-04-26T05:58:25.009Z,9.07
2023-04-26T06:00:52.297Z,8.98
2023-04-26T06:03:20.673Z,7.93
2023-04-26T06:05:48.061Z,8.57
2023-04-26T06:08:15.207Z,8.70
2023-04-26T06:10:42.309Z,8.52
2023-04-26T06:13:09.518Z,8.75
2023-04-26T06:15:36.861Z,8.23
2023-04-26T06:18:05.584Z,8.30
2023-04-26T06:20:33.151Z,8.88
2023-04-26T06:23:00.320Z,8.25
2023-04-26T06:25:27.363Z,8.32
2023-04-26T06:27:54.923Z,8.20
2023-04-26T06:30:22.449Z,8.43
2023-04-26T06:32:50.361Z,8.18
2023-04-26T06:35:17.580Z,7.82
2023-04-26T06:37:44.804Z,8.05
2023-04-26T06:40:14.104Z,9.13
2023-04-26T06:42:41.446Z,7.72
2023-04-26T06:45:09.428Z,7.05
2023-04-26T06:47:36.780Z,7.78
2023-04-26T06:50:05.060Z,7.47
2023-04-26T06:52:32.329Z,7.75
2023-04-26T06:55:03.410Z,7.88
2023-04-26T06:57:30.810Z,7.95
2023-04-26T06:59:58.358Z,7.20
2023-04-26T07:02:25.764Z,7.80
2023-04-26T07:04:53.555Z,7.53
2023-04-26T07:07:21.213Z,8.10
2023-04-26T07:09:48.370Z,7.60
2023-04-26T07:12:15.706Z,7.93
2023-04-26T07:14:43.555Z,8.00
2023-04-26T07:17:11.232Z,7.32
2023-04-26T07:19:38.747Z,7.57
2023-04-26T07:22:06.201Z,6.70
2023-04-26T07:24:33.430Z,7.18
2023-04-26T07:27:01.254Z,6.60
2023-04-26T07:29:28.693Z,6.88
2023-04-26T07:31:57.166Z,6.18
2023-04-26T07:34:24.805Z,6.10
2023-04-26T07:36:52.127Z,6.72
2023-04-26T07:39:19.821Z,7.35
2023-04-26T07:41:47.147Z,8.05
2023-04-26T07:44:14.426Z,7.50
2023-04-26T07:46:41.563Z,7.43
2023-04-26T07:49:09.129Z,6.70
2023-04-26T07:51:37.145Z,6.60
2023-04-26T07:54:04.277Z,6.32
2023-04-26T07:56:31.452Z,5.50
2023-04-26T07:58:58.865Z,5.20
2023-04-26T08:01:26.378Z,5.30
2023-04-26T08:03:55.048Z,4.53
2023-04-26T08:06:23.160Z,5.25
2023-04-26T08:08:54.111Z,6.40
2023-04-26T08:11:21.987Z,5.55
2023-04-26T08:13:49.316Z,5.40
2023-04-26T08:16:16.845Z,4.10
2023-04-26T08:18:46.672Z,4.63
2023-04-26T08:21:14.278Z,4.60
2023-04-26T08:23:41.815Z,4.10
2023-04-26T08:26:09.019Z,4.07
2023-04-26T08:28:36.328Z,4.13
2023-04-26T08:31:03.980Z,4.22
2023-04-26T08:33:31.767Z,4.45
2023-04-26T08:36:01.450Z,3.65
2023-04-26T08:38:29.903Z,4.80
2023-04-26T08:41:02.019Z,7.18
2023-04-26T08:43:37.553Z,4.03
2023-04-26T08:46:11.597Z,3.40
2023-04-26T08:48:39.134Z,3.22
2023-04-26T08:51:07.603Z,3.70
2023-04-26T08:53:36.129Z,3.20
2023-04-26T08:56:04.933Z,3.30
2023-04-26T08:58:32.615Z,3.38
2023-04-26T09:01:02.100Z,3.22
2023-04-26T09:03:30.140Z,3.78
2023-04-26T09:05:58.197Z,6.00
2023-04-26T09:08:25.472Z,6.32
2023-04-26T09:10:52.580Z,3.75
2023-04-26T09:13:19.747Z,3.30
2023-04-26T09:15:48.966Z,3.40
2023-04-26T09:18:20.243Z,3.60
2023-04-26T09:21:06.070Z,3.20
2023-04-26T09:23:33.547Z,3.33
2023-04-26T09:26:17.342Z,3.95
2023-04-26T09:28:46.530Z,3.20
2023-04-26T09:31:45.270Z,3.13
2023-04-26T09:34:14.758Z,3.25
2023-04-26T09:36:52.827Z,3.47
2023-04-26T09:39:38.050Z,3.17
2023-04-26T09:42:06.049Z,3.08
2023-04-26T09:44:33.411Z,2.65
2023-04-26T09:47:02.443Z,3.03
2023-04-26T09:49:43.047Z,3.10
2023-04-26T09:52:10.624Z,3.40
2023-04-26T09:54:51.739Z,3.38
2023-04-26T09:57:22.407Z,2.85
2023-04-26T09:59:55.430Z,3.05
2023-04-26T10:02:24.318Z,2.90
2023-04-26T10:04:56.917Z,3.08
2023-04-26T10:07:26.261Z,3.20
2023-04-26T10:09:55.704Z,2.72
2023-04-26T10:12:23.435Z,2.70
2023-04-26T10:14:50.798Z,3.55
2023-04-26T10:17:20.816Z,2.75
2023-04-26T10:19:51.379Z,2.67
2023-04-26T10:22:27.157Z,2.88
2023-04-26T10:24:55.915Z,2.80
2023-04-26T10:27:44.768Z,2.92
2023-04-26T10:30:16.620Z,2.90
2023-04-26T10:33:07.053Z,2.67
2023-04-26T10:35:38.149Z,2.60
2023-04-26T10:38:08.318Z,3.25
2023-04-26T10:40:41.234Z,2.50
2023-04-26T10:43:11.565Z,2.42
2023-04-26T10:45:39.904Z,2.70
2023-04-26T10:48:18.985Z,2.60
2023-04-26T10:51:12.910Z,2.00
2023-04-26T10:53:49.138Z,2.20
2023-04-26T10:56:39.917Z,2.70
2023-04-26T11:01:46.296Z,2.40
2023-04-26T11:04:13.598Z,2.53
2023-04-26T11:06:51.402Z,2.28
2023-04-26T11:09:38.187Z,1.88
2023-04-26T11:12:07.036Z,1.90
2023-04-26T11:14:37.147Z,1.45
2023-04-26T11:17:05.604Z,1.73
2023-04-26T11:19:33.269Z,1.70
2023-04-26T11:22:00.951Z,1.70
2023-04-26T11:24:31.692Z,1.55
2023-04-26T11:26:59.177Z,1.45
2023-04-26T11:29:27.065Z,1.50
2023-04-26T11:31:58.348Z,1.80
2023-04-26T11:34:41.625Z,1.48
2023-04-26T11:37:08.771Z,1.23
2023-04-26T11:39:36.975Z,1.40
2023-04-26T11:42:11.510Z,1.73
2023-04-26T11:44:40.611Z,1.45
2023-04-26T11:47:08.702Z,1.40
2023-04-26T11:49:39.013Z,1.58
2023-04-26T11:52:06.663Z,1.77
2023-04-26T11:54:35.919Z,1.50
2023-04-26T11:57:16.663Z,1.48
2023-04-26T11:59:44.958Z,1.50
2023-04-26T12:02:13.371Z,1.63
2023-04-26T12:04:41.468Z,1.50
2023-04-26T12:07:09.748Z,1.88
2023-04-26T12:09:42.130Z,1.75
2023-04-26T12:12:09.198Z,1.48
2023-04-26T12:14:40.811Z,18.73
2023-04-26T12:17:08.223Z,1.38
2023-04-26T12:19:37.083Z,1.48
2023-04-26T12:22:08.619Z,1.50
2023-04-26T12:24:37.317Z,1.83
2023-04-26T12:27:06.876Z,1.30
2023-04-26T12:29:35.624Z,1.50
2023-04-26T12:32:04.319Z,2.13
2023-04-26T12:34:31.633Z,1.95
2023-04-26T12:36:58.646Z,1.60
2023-04-26T12:39:25.713Z,1.60
2023-04-26T12:41:52.750Z,1.75
2023-04-26T12:44:21.872Z,1.70
2023-04-26T12:46:49.734Z,1.50
2023-04-26T12:49:16.859Z,1.70
2023-04-26T12:51:43.849Z,1.40
2023-04-26T12:54:10.803Z,1.50
2023-04-26T12:56:43.740Z,1.70
2023-04-26T12:59:11.072Z,1.60
2023-04-26T13:01:38.770Z,1.70
2023-04-26T13:04:06.526Z,1.95
2023-04-26T13:06:35.002Z,1.65
2023-04-26T13:09:02.199Z,1.48
2023-04-26T13:11:29.274Z,1.30
2023-04-26T13:13:56.308Z,1.42
2023-04-26T13:16:23.307Z,1.70
2023-04-26T13:18:51.358Z,1.80
2023-04-26T13:21:18.350Z,1.70
2023-04-26T13:23:46.480Z,1.58
2023-04-26T13:26:15.156Z,1.95
2023-04-26T13:28:42.226Z,1.50
2023-04-26T13:31:09.316Z,1.30
2023-04-26T13:33:36.527Z,1.52
2023-04-26T13:36:03.584Z,1.55
2023-04-26T13:38:32.770Z,1.40
2023-04-26T13:41:00.060Z,1.45
2023-04-26T13:43:27.126Z,1.40
2023-04-26T13:45:54.124Z,1.83
2023-04-26T13:48:21.130Z,1.50
2023-04-26T13:50:48.144Z,1.33
2023-04-26T13:53:15.024Z,1.30
2023-04-26T13:55:42.114Z,1.30
2023-04-26T13:58:09.430Z,1.50
2023-04-26T14:00:37.014Z,1.55
2023-04-26T14:03:04.169Z,1.23
2023-04-26T14:05:31.504Z,1.63
2023-04-26T14:07:59.017Z,1.50
2023-04-26T14:10:26.312Z,1.40
2023-04-26T14:12:54.868Z,1.70
2023-04-26T14:15:22.618Z,1.63
2023-04-26T14:17:49.917Z,1.60
2023-04-26T14:20:17.153Z,1.40
2023-04-26T14:22:44.142Z,1.60
2023-04-26T14:25:11.115Z,1.40
2023-04-26T14:27:39.586Z,1.30
2023-04-26T14:30:07.616Z,1.65
2023-04-26T14:32:34.542Z,1.42
2023-04-26T14:35:01.540Z,1.40
2023-04-26T14:37:28.451Z,1.55
2023-04-26T14:39:55.405Z,2.17
2023-04-26T14:42:22.430Z,1.50
2023-04-26T14:44:49.790Z,1.50
2023-04-26T14:47:16.753Z,1.50
2023-04-26T14:49:43.701Z,1.25
2023-04-26T14:52:10.693Z,1.20
2023-04-26T14:54:39.075Z,1.30
2023-04-26T14:57:06.183Z,1.30
2023-04-26T14:59:33.718Z,1.45
2023-04-26T15:02:00.831Z,1.45
2023-04-26T15:04:30.571Z,1.67
2023-04-26T15:06:57.777Z,1.40
2023-04-26T15:09:24.991Z,1.63
2023-04-26T15:11:51.910Z,1.45
2023-04-26T15:14:18.986Z,1.45
2023-04-26T15:16:46.001Z,2.40
2023-04-26T15:19:12.947Z,1.60
2023-04-26T15:21:39.987Z,1.77
2023-04-26T15:24:07.821Z,1.50
2023-04-26T15:26:35.397Z,1.40
2023-04-26T15:29:02.460Z,1.17
2023-04-26T15:31:29.663Z,1.63
2023-04-26T15:33:56.863Z,1.50
2023-04-26T15:36:24.157Z,1.40
2023-04-26T15:38:54.365Z,1.20
2023-04-26T15:41:21.467Z,1.33
2023-04-26T15:43:54.524Z,1.45
2023-04-26T15:46:22.470Z,1.80
2023-04-26T15:48:49.654Z,1.45
2023-04-26T15:51:16.919Z,1.50
2023-04-26T15:53:44.235Z,1.60
2023-04-26T15:56:15.534Z,1.33
2023-04-26T15:58:46.497Z,1.42
2023-04-26T16:01:14.766Z,1.35
2023-04-26T16:03:45.612Z,1.35
2023-04-26T16:06:14.171Z,1.13
2023-04-26T16:08:41.656Z,1.30
2023-04-26T16:11:08.946Z,1.20
2023-04-26T16:13:36.205Z,1.52
2023-04-26T16:16:11.238Z,1.23
2023-04-26T16:18:39.922Z,1.20
2023-04-26T16:21:10.026Z,1.40
2023-04-26T16:23:39.552Z,1.50
2023-04-26T16:26:06.808Z,1.30
2023-04-26T16:28:34.353Z,1.50
2023-04-26T16:31:01.562Z,2.25
2023-04-26T16:33:28.850Z,1.52
2023-04-26T16:35:56.163Z,1.55
2023-04-26T16:38:23.849Z,1.65
2023-04-26T16:40:58.117Z,1.33
2023-04-26T16:43:29.085Z,1.30
2023-04-26T16:46:07.747Z,1.40
2023-04-26T16:48:36.276Z,1.30
2023-04-26T16:51:07.657Z,1.27
2023-04-26T16:53:36.107Z,1.30
2023-04-26T16:56:04.155Z,1.15
2023-04-26T16:58:31.177Z,1.00
2023-04-26T17:00:58.610Z,1.30
2023-04-26T17:03:26.738Z,1.20
2023-04-26T17:05:54.130Z,1.20
2023-04-26T17:08:22.122Z,1.27
2023-04-26T17:10:49.336Z,1.23
2023-04-26T17:13:16.456Z,2.42
2023-04-26T17:15:43.864Z,2.40
2023-04-26T17:18:11.345Z,2.42
2023-04-26T17:20:38.853Z,2.45
2023-04-26T17:23:08.324Z,2.30
2023-04-26T17:25:35.563Z,2.30
2023-04-26T17:28:03.012Z,2.35
2023-04-26T17:30:30.868Z,2.55
2023-04-26T17:32:58.011Z,2.60
2023-04-26T17:35:25.276Z,2.25
2023-04-26T17:37:52.657Z,2.70
2023-04-26T17:40:19.771Z,2.55
2023-04-26T17:42:46.997Z,2.15
2023-04-26T17:45:14.825Z,2.20
2023-04-26T17:47:42.941Z,2.20
2023-04-26T17:50:11.088Z,2.17
2023-04-26T17:52:38.609Z,2.28
2023-04-26T17:55:08.307Z,2.15
2023-04-26T17:57:38.445Z,2.50
2023-04-26T18:00:12.925Z,2.20
2023-04-26T18:02:41.248Z,2.50
2023-04-26T18:05:09.191Z,3.00
2023-04-26T18:07:36.377Z,2.10
2023-04-26T18:10:04.250Z,2.38
2023-04-26T18:12:32.143Z,2.40
2023-04-26T18:14:59.932Z,2.40
2023-04-26T18:17:27.515Z,2.50
2023-04-26T18:19:54.652Z,2.15
2023-04-26T18:22:21.703Z,2.47
2023-04-26T18:24:48.745Z,2.55
2023-04-26T18:27:15.789Z,2.00
2023-04-26T18:29:42.835Z,2.25
2023-04-26T18:32:09.988Z,2.30
2023-04-26T18:34:37.353Z,2.10
2023-04-26T18:37:04.985Z,3.15
2023-04-26T18:39:32.200Z,2.10
2023-04-26T18:41:59.363Z,2.20
2023-04-26T18:44:26.774Z,2.20
2023-04-26T18:46:55.912Z,2.10
2023-04-26T18:49:23.876Z,2.10
2023-04-26T18:51:51.176Z,2.50
2023-04-26T18:54:18.221Z,2.10
2023-04-26T18:56:45.594Z,2.08
2023-04-26T18:59:13.019Z,2.17
2023-04-26T19:01:41.120Z,2.10
2023-04-26T19:04:09.668Z,2.20
2023-04-26T19:06:37.105Z,2.38
2023-04-26T19:09:06.139Z,2.33
2023-04-26T19:11:33.381Z,2.00
2023-04-26T19:14:00.469Z,2.00
2023-04-26T19:16:27.796Z,2.33
2023-04-26T19:18:55.230Z,2.30
2023-04-26T19:21:22.525Z,2.03
2023-04-26T19:23:49.858Z,2.53
2023-04-26T19:26:16.948Z,2.20
2023-04-26T19:28:44.081Z,2.50
2023-04-26T19:31:11.300Z,2.55
2023-04-26T19:33:38.615Z,2.70
2023-04-26T19:36:05.828Z,2.63
2023-04-26T19:38:33.164Z,2.40
2023-04-26T19:41:01.251Z,2.22
2023-04-26T19:43:28.304Z,2.15
2023-04-26T19:45:55.341Z,2.15
2023-04-26T19:48:22.394Z,2.08
2023-04-26T19:50:49.447Z,2.20
2023-04-26T19:53:16.498Z,1.95
2023-04-26T19:55:43.624Z,2.00
2023-04-26T19:58:11.086Z,2.15
2023-04-26T20:00:39.948Z,2.10
2023-04-26T20:03:07.239Z,1.98
2023-04-26T20:05:34.688Z,1.80
2023-04-26T20:08:02.072Z,2.00
2023-04-26T20:10:33.924Z,1.70
2023-04-26T20:13:01.581Z,2.10
2023-04-26T20:15:31.044Z,2.03
2023-04-26T20:17:59.494Z,2.00
2023-04-26T20:20:26.580Z,1.92
2023-04-26T20:22:53.678Z,2.30
2023-04-26T20:25:20.935Z,2.17
2023-04-26T20:27:48.625Z,2.42
2023-04-26T20:30:16.328Z,2.10
2023-04-26T20:32:43.512Z,2.55
2023-04-26T20:35:12.803Z,2.63
2023-04-26T20:37:40.174Z,2.25
2023-04-26T20:40:08.336Z,2.70
2023-04-26T20:42:35.617Z,2.50
2023-04-26T20:45:03.101Z,2.53
2023-04-26T20:47:30.406Z,2.72
2023-04-26T20:49:57.497Z,2.78
2023-04-26T20:52:24.553Z,2.90
2023-04-26T20:54:51.706Z,2.85
2023-04-26T20:57:19.207Z,2.47
2023-04-26T20:59:46.321Z,2.50
2023-04-26T21:02:13.594Z,2.47
2023-04-26T21:04:42.784Z,2.20
2023-04-26T21:07:11.045Z,2.65
2023-04-26T21:09:38.088Z,2.63
2023-04-26T21:12:05.667Z,2.63
2023-04-26T21:14:32.895Z,2.58
2023-04-26T21:17:01.254Z,3.30
2023-04-26T21:19:28.476Z,3.10
2023-04-26T21:21:55.786Z,3.28
2023-04-26T21:24:22.971Z,2.85
2023-04-26T21:26:50.214Z,3.25
2023-04-26T21:29:17.550Z,3.00
2023-04-26T21:31:45.591Z,3.30
2023-04-26T21:34:13.113Z,3.22
2023-04-26T21:36:40.498Z,3.97
2023-04-26T21:39:07.873Z,3.75
2023-04-26T21:41:35.116Z,3.90
2023-04-26T21:44:02.196Z,4.20
2023-04-26T21:46:29.593Z,3.78
2023-04-26T21:48:56.855Z,3.97
2023-04-26T21:51:24.518Z,3.45
2023-04-26T21:53:52.634Z,4.03
2023-04-26T21:56:19.852Z,3.95
2023-04-26T21:58:47.003Z,4.15
2023-04-26T22:01:15.701Z,3.88
2023-04-26T22:03:43.195Z,3.83
2023-04-26T22:06:11.099Z,3.58
2023-04-26T22:08:38.795Z,3.35
2023-04-26T22:11:06.021Z,3.45
2023-04-26T22:13:33.145Z,3.85
2023-04-26T22:16:00.500Z,4.25
2023-04-26T22:18:28.660Z,3.20
2023-04-26T22:20:55.698Z,3.60
2023-04-26T22:23:22.805Z,3.70
2023-04-26T22:25:49.859Z,3.10
2023-04-26T22:28:17.059Z,3.53
2023-04-26T22:30:44.241Z,3.20
2023-04-26T22:33:12.436Z,3.17
2023-04-26T22:35:39.806Z,3.60
2023-04-26T22:38:07.144Z,3.50
2023-04-26T22:40:34.465Z,3.63
2023-04-26T22:43:01.887Z,3.40
2023-04-26T22:45:29.034Z,3.35
2023-04-26T22:47:56.208Z,3.42
2023-04-26T22:50:23.754Z,3.22
2023-04-26T22:52:51.089Z,3.30
2023-04-26T22:55:18.644Z,3.03
2023-04-26T22:57:46.414Z,3.50
2023-04-26T23:00:14.764Z,3.33
2023-04-26T23:02:42.226Z,3.30
2023-04-26T23:05:10.326Z,3.30
2023-04-26T23:07:39.011Z,3.40
2023-04-26T23:10:06.954Z,4.00
2023-04-26T23:12:34.326Z,3.90
2023-04-26T23:15:02.030Z,3.15
2023-04-26T23:17:29.180Z,3.67
2023-04-26T23:19:56.571Z,3.20
2023-04-26T23:22:23.749Z,2.97
2023-04-26T23:24:50.847Z,3.55
2023-04-26T23:27:18.894Z,3.83
2023-04-26T23:29:46.008Z,3.90
2023-04-26T23:32:13.364Z,3.50
2023-04-26T23:34:40.587Z,4.15
2023-04-26T23:37:08.223Z,4.20
2023-04-26T23:39:36.060Z,4.15
2023-04-26T23:42:04.064Z,4.45
2023-04-26T23:44:31.349Z,5.28
2023-04-26T23:46:58.591Z,3.97
2023-04-26T23:49:25.669Z,4.25
2023-04-26T23:51:52.931Z,4.25
2023-04-26T23:54:20.064Z,4.22
2023-04-26T23:56:47.164Z,4.57
2023-04-26T23:59:14.974Z,4.80
